sensor_id;sensor_type;location;lat;lon;timestamp;pressure;altitude;pressure_sealevel;temperature;humidity
47670;BME280;33408;52.062;11.722;2023-05-25T00:01:34;102001.44;;;7.61;100.00
47670;BME280;33408;52.062;11.722;2023-05-25T00:04:01;102003.88;;;7.52;100.00
47670;BME280;33408;52.062;11.722;2023-05-25T00:06:28;102006.47;;;7.52;100.00
47670;BME280;33408;52.062;11.722;2023-05-25T00:08:55;101999.78;;;7.64;100.00
47670;BME280;33408;52.062;11.722;2023-05-25T00:11:22;101998.91;;;7.64;100.00
47670;BME280;33408;52.062;11.722;2023-05-25T00:13:50;102007.47;;;7.61;100.00
47670;BME280;33408;52.062;11.722;2023-05-25T00:16:17;102009.94;;;7.52;100.00
47670;BME280;33408;52.062;11.722;2023-05-25T00:18:44;102008.25;;;7.56;100.00
47670;BME280;33408;52.062;11.722;2023-05-25T00:21:12;102002.47;;;7.72;100.00
47670;BME280;33408;52.062;11.722;2023-05-25T00:23:39;102004.31;;;7.81;100.00
47670;BME280;33408;52.062;11.722;2023-05-25T00:26:06;102005.25;;;7.86;100.00
47670;BME280;33408;52.062;11.722;2023-05-25T00:28:33;102008.69;;;7.87;100.00
47670;BME280;33408;52.062;11.722;2023-05-25T00:31:01;101999.06;;;7.73;100.00
47670;BME280;33408;52.062;11.722;2023-05-25T00:33:27;102001.63;;;7.72;100.00
47670;BME280;33408;52.062;11.722;2023-05-25T00:35:54;102004.16;;;7.69;100.00
47670;BME280;33408;52.062;11.722;2023-05-25T00:38:21;101993.81;;;7.69;100.00
47670;BME280;33408;52.062;11.722;2023-05-25T00:40:53;101997.28;;;7.71;100.00
47670;BME280;33408;52.062;11.722;2023-05-25T00:43:20;101992.97;;;7.68;100.00
47670;BME280;33408;52.062;11.722;2023-05-25T00:45:47;102000.75;;;7.73;100.00
47670;BME280;33408;52.062;11.722;2023-05-25T00:48:16;101995.53;;;7.66;100.00
47670;BME280;33408;52.062;11.722;2023-05-25T00:50:43;101992.13;;;7.71;100.00
47670;BME280;33408;52.062;11.722;2023-05-25T00:53:11;101990.38;;;7.66;100.00
47670;BME280;33408;52.062;11.722;2023-05-25T00:55:42;101984.31;;;7.66;100.00
47670;BME280;33408;52.062;11.722;2023-05-25T00:58:10;101990.28;;;7.60;100.00
47670;BME280;33408;52.062;11.722;2023-05-25T01:00:40;101986.69;;;7.51;100.00
47670;BME280;33408;52.062;11.722;2023-05-25T01:03:13;101980.00;;;7.63;100.00
47670;BME280;33408;52.062;11.722;2023-05-25T01:05:44;101984.25;;;7.63;100.00
47670;BME280;33408;52.062;11.722;2023-05-25T01:08:13;101989.41;;;7.61;100.00
47670;BME280;33408;52.062;11.722;2023-05-25T01:10:42;101982.56;;;7.62;100.00
47670;BME280;33408;52.062;11.722;2023-05-25T01:13:12;101993.72;;;7.62;100.00
47670;BME280;33408;52.062;11.722;2023-05-25T01:15:40;101991.97;;;7.60;100.00
47670;BME280;33408;52.062;11.722;2023-05-25T01:18:06;102001.53;;;7.65;100.00
47670;BME280;33408;52.062;11.722;2023-05-25T01:20:33;102001.34;;;7.55;100.00
47670;BME280;33408;52.062;11.722;2023-05-25T01:23:11;102001.88;;;7.32;100.00
47670;BME280;33408;52.062;11.722;2023-05-25T01:25:46;101992.06;;;7.09;100.00
47670;BME280;33408;52.062;11.722;2023-05-25T01:28:16;101996.75;;;6.80;100.00
47670;BME280;33408;52.062;11.722;2023-05-25T01:30:45;101997.03;;;6.48;100.00
47670;BME280;33408;52.062;11.722;2023-05-25T01:33:13;101995.06;;;6.35;100.00
47670;BME280;33408;52.062;11.722;2023-05-25T01:35:46;101996.19;;;6.49;100.00
47670;BME280;33408;52.062;11.722;2023-05-25T01:38:14;101995.06;;;6.35;100.00
47670;BME280;33408;52.062;11.722;2023-05-25T01:40:41;101995.19;;;6.41;100.00
47670;BME280;33408;52.062;11.722;2023-05-25T01:43:08;102001.41;;;6.52;100.00
47670;BME280;33408;52.062;11.722;2023-05-25T01:45:35;101992.91;;;6.58;100.00
47670;BME280;33408;52.062;11.722;2023-05-25T01:48:08;101990.31;;;6.58;100.00
47670;BME280;33408;52.062;11.722;2023-05-25T01:50:48;101992.94;;;6.60;100.00
47670;BME280;33408;52.062;11.722;2023-05-25T01:53:22;101989.94;;;6.84;100.00
47670;BME280;33408;52.062;11.722;2023-05-25T01:55:54;101987.72;;;6.56;100.00
47670;BME280;33408;52.062;11.722;2023-05-25T01:58:25;101987.97;;;6.69;100.00
47670;BME280;33408;52.062;11.722;2023-05-25T02:00:52;101988.91;;;6.74;100.00
47670;BME280;33408;52.062;11.722;2023-05-25T02:03:20;101985.50;;;6.75;100.00
47670;BME280;33408;52.062;11.722;2023-05-25T02:05:46;101976.97;;;6.81;100.00
47670;BME280;33408;52.062;11.722;2023-05-25T02:08:13;101986.44;;;6.80;100.00
47670;BME280;33408;52.062;11.722;2023-05-25T02:10:41;101983.81;;;6.77;100.00
47670;BME280;33408;52.062;11.722;2023-05-25T02:13:08;101982.13;;;6.79;100.00
47670;BME280;33408;52.062;11.722;2023-05-25T02:15:34;101984.75;;;6.82;100.00
47670;BME280;33408;52.062;11.722;2023-05-25T02:18:01;101995.84;;;6.78;100.00
47670;BME280;33408;52.062;11.722;2023-05-25T02:20:29;102001.03;;;6.80;100.00
47670;BME280;33408;52.062;11.722;2023-05-25T02:22:56;101993.31;;;6.80;100.00
47670;BME280;33408;52.062;11.722;2023-05-25T02:25:23;101998.19;;;6.64;100.00
47670;BME280;33408;52.062;11.722;2023-05-25T02:27:51;102002.22;;;6.50;100.00
47670;BME280;33408;52.062;11.722;2023-05-25T02:30:17;101995.19;;;6.41;100.00
47670;BME280;33408;52.062;11.722;2023-05-25T02:32:44;101986.25;;;6.24;100.00
47670;BME280;33408;52.062;11.722;2023-05-25T02:35:10;101993.75;;;6.13;100.00
47670;BME280;33408;52.062;11.722;2023-05-25T02:37:37;101995.97;;;5.96;100.00
47670;BME280;33408;52.062;11.722;2023-05-25T02:40:05;101997.72;;;5.97;100.00
47670;BME280;33408;52.062;11.722;2023-05-25T02:42:32;102004.59;;;5.96;100.00
47670;BME280;33408;52.062;11.722;2023-05-25T02:45:00;102003.63;;;5.93;100.00
47670;BME280;33408;52.062;11.722;2023-05-25T02:47:26;102009.94;;;5.68;100.00
47670;BME280;33408;52.062;11.722;2023-05-25T02:49:53;102009.81;;;5.99;100.00
47670;BME280;33408;52.062;11.722;2023-05-25T02:52:20;102009.28;;;6.16;100.00
47670;BME280;33408;52.062;11.722;2023-05-25T02:54:46;102004.47;;;6.33;100.00
47670;BME280;33408;52.062;11.722;2023-05-25T02:57:13;102014.25;;;6.51;100.00
47670;BME280;33408;52.062;11.722;2023-05-25T02:59:40;102009.19;;;6.55;100.00
47670;BME280;33408;52.062;11.722;2023-05-25T03:02:08;102018.59;;;6.55;100.00
47670;BME280;33408;52.062;11.722;2023-05-25T03:04:36;102023.53;;;6.41;100.00
47670;BME280;33408;52.062;11.722;2023-05-25T03:07:04;102024.03;;;6.23;100.00
47670;BME280;33408;52.062;11.722;2023-05-25T03:09:30;102030.91;;;6.24;100.00
47670;BME280;33408;52.062;11.722;2023-05-25T03:11:57;102022.53;;;6.34;100.00
47670;BME280;33408;52.062;11.722;2023-05-25T03:14:23;102027.25;;;6.14;100.00
47670;BME280;33408;52.062;11.722;2023-05-25T03:16:50;102026.31;;;6.09;100.00
47670;BME280;33408;52.062;11.722;2023-05-25T03:19:18;102028.19;;;6.18;100.00
47670;BME280;33408;52.062;11.722;2023-05-25T03:21:45;102025.91;;;6.32;100.00
47670;BME280;33408;52.062;11.722;2023-05-25T03:24:11;102026.84;;;6.37;100.00
47670;BME280;33408;52.062;11.722;2023-05-25T03:26:38;102032.97;;;6.42;100.00
47670;BME280;33408;52.062;11.722;2023-05-25T03:29:05;102022.72;;;6.45;100.00
47670;BME280;33408;52.062;11.722;2023-05-25T03:31:32;102025.22;;;6.42;100.00
47670;BME280;33408;52.062;11.722;2023-05-25T03:33:58;102024.34;;;6.40;100.00
47670;BME280;33408;52.062;11.722;2023-05-25T03:36:26;102033.19;;;6.53;100.00
47670;BME280;33408;52.062;11.722;2023-05-25T03:38:55;102035.88;;;6.59;100.00
47670;BME280;33408;52.062;11.722;2023-05-25T03:41:21;102045.53;;;6.71;100.00
47670;BME280;33408;52.062;11.722;2023-05-25T03:43:48;102046.31;;;7.14;100.00
47670;BME280;33408;52.062;11.722;2023-05-25T03:46:14;102052.09;;;7.53;100.00
47670;BME280;33408;52.062;11.722;2023-05-25T03:48:41;102062.19;;;7.40;100.00
47670;BME280;33408;52.062;11.722;2023-05-25T03:51:08;102066.91;;;7.12;100.00
47670;BME280;33408;52.062;11.722;2023-05-25T03:53:36;102071.94;;;7.06;100.00
47670;BME280;33408;52.062;11.722;2023-05-25T03:56:02;102070.53;;;7.24;100.00
47670;BME280;33408;52.062;11.722;2023-05-25T03:58:29;102063.06;;;7.39;100.00
47670;BME280;33408;52.062;11.722;2023-05-25T04:00:55;102068.56;;;7.62;100.00
47670;BME280;33408;52.062;11.722;2023-05-25T04:03:22;102071.44;;;7.81;100.00
47670;BME280;33408;52.062;11.722;2023-05-25T04:05:49;102071.47;;;7.84;100.00
47670;BME280;33408;52.062;11.722;2023-05-25T04:08:16;102073.38;;;7.96;100.00
47670;BME280;33408;52.062;11.722;2023-05-25T04:10:45;102073.56;;;8.11;100.00
47670;BME280;33408;52.062;11.722;2023-05-25T04:13:12;102069.75;;;8.46;100.00
47670;BME280;33408;52.062;11.722;2023-05-25T04:15:39;102067.72;;;9.01;100.00
47670;BME280;33408;52.062;11.722;2023-05-25T04:18:05;102068.78;;;9.22;100.00
47670;BME280;33408;52.062;11.722;2023-05-25T04:20:32;102064.78;;;9.62;100.00
47670;BME280;33408;52.062;11.722;2023-05-25T04:22:59;102062.88;;;9.38;100.00
47670;BME280;33408;52.062;11.722;2023-05-25T04:25:26;102064.03;;;9.83;100.00
47670;BME280;33408;52.062;11.722;2023-05-25T04:27:54;102073.09;;;9.21;100.00
47670;BME280;33408;52.062;11.722;2023-05-25T04:30:21;102068.63;;;9.06;100.00
47670;BME280;33408;52.062;11.722;2023-05-25T04:32:48;102076.81;;;8.64;100.00
47670;BME280;33408;52.062;11.722;2023-05-25T04:35:14;102073.19;;;8.46;100.00
47670;BME280;33408;52.062;11.722;2023-05-25T04:37:45;102079.19;;;8.47;100.00
47670;BME280;33408;52.062;11.722;2023-05-25T04:40:12;102081.00;;;8.51;100.00
47670;BME280;33408;52.062;11.722;2023-05-25T04:42:39;102081.53;;;8.27;100.00
47670;BME280;33408;52.062;11.722;2023-05-25T04:45:08;102095.41;;;8.35;100.00
47670;BME280;33408;52.062;11.722;2023-05-25T04:47:35;102102.34;;;8.39;100.00
47670;BME280;33408;52.062;11.722;2023-05-25T04:50:06;102113.31;;;8.19;100.00
47670;BME280;33408;52.062;11.722;2023-05-25T04:52:33;102113.16;;;8.09;100.00
47670;BME280;33408;52.062;11.722;2023-05-25T04:54:59;102117.66;;;8.24;100.00
47670;BME280;33408;52.062;11.722;2023-05-25T04:57:27;102125.53;;;8.33;100.00
47670;BME280;33408;52.062;11.722;2023-05-25T04:59:54;102111.00;;;8.43;100.00
47670;BME280;33408;52.062;11.722;2023-05-25T05:02:22;102106.88;;;8.54;100.00
47670;BME280;33408;52.062;11.722;2023-05-25T05:04:49;102109.34;;;8.46;100.00
47670;BME280;33408;52.062;11.722;2023-05-25T05:07:18;102107.72;;;8.54;100.00
47670;BME280;33408;52.062;11.722;2023-05-25T05:09:44;102114.59;;;8.51;100.00
47670;BME280;33408;52.062;11.722;2023-05-25T05:12:11;102117.13;;;8.48;100.00
47670;BME280;33408;52.062;11.722;2023-05-25T05:14:37;102120.81;;;8.67;100.00
47670;BME280;33408;52.062;11.722;2023-05-25T05:17:04;102120.09;;;8.80;100.00
47670;BME280;33408;52.062;11.722;2023-05-25T05:19:32;102125.22;;;8.75;100.00
47670;BME280;33408;52.062;11.722;2023-05-25T05:21:59;102120.63;;;8.51;100.00
47670;BME280;33408;52.062;11.722;2023-05-25T05:24:25;102130.44;;;8.80;100.00
47670;BME280;33408;52.062;11.722;2023-05-25T05:26:52;102122.94;;;9.06;100.00
47670;BME280;33408;52.062;11.722;2023-05-25T05:29:19;102126.38;;;9.02;100.00
47670;BME280;33408;52.062;11.722;2023-05-25T05:31:45;102125.34;;;8.88;100.00
47670;BME280;33408;52.062;11.722;2023-05-25T05:34:12;102124.50;;;8.87;100.00
47670;BME280;33408;52.062;11.722;2023-05-25T05:36:40;102136.63;;;8.93;100.00
47670;BME280;33408;52.062;11.722;2023-05-25T05:39:06;102141.06;;;9.05;100.00
47670;BME280;33408;52.062;11.722;2023-05-25T05:41:33;102136.94;;;9.24;100.00
47670;BME280;33408;52.062;11.722;2023-05-25T05:44:00;102137.06;;;9.36;100.00
47670;BME280;33408;52.062;11.722;2023-05-25T05:46:26;102137.16;;;9.48;100.00
47670;BME280;33408;52.062;11.722;2023-05-25T05:48:53;102143.34;;;9.64;100.00
47670;BME280;33408;52.062;11.722;2023-05-25T05:51:19;102140.28;;;10.21;100.00
47670;BME280;33408;52.062;11.722;2023-05-25T05:53:47;102136.16;;;10.58;100.00
47670;BME280;33408;52.062;11.722;2023-05-25T05:56:17;102133.72;;;11.02;100.00
47670;BME280;33408;52.062;11.722;2023-05-25T05:58:44;102137.19;;;11.30;100.00
47670;BME280;33408;52.062;11.722;2023-05-25T06:01:12;102138.06;;;11.46;100.00
47670;BME280;33408;52.062;11.722;2023-05-25T06:03:39;102135.47;;;11.41;100.00
47670;BME280;33408;52.062;11.722;2023-05-25T06:06:06;102142.38;;;12.26;100.00
47670;BME280;33408;52.062;11.722;2023-05-25T06:08:32;102129.69;;;13.29;100.00
47670;BME280;33408;52.062;11.722;2023-05-25T06:11:00;102133.38;;;14.09;100.00
47670;BME280;33408;52.062;11.722;2023-05-25T06:13:27;102132.25;;;14.32;100.00
47670;BME280;33408;52.062;11.722;2023-05-25T06:15:53;102128.81;;;13.35;100.00
47670;BME280;33408;52.062;11.722;2023-05-25T06:18:20;102132.75;;;13.81;100.00
47670;BME280;33408;52.062;11.722;2023-05-25T06:20:46;102133.38;;;14.09;100.00
47670;BME280;33408;52.062;11.722;2023-05-25T06:23:13;102128.44;;;14.62;100.00
47670;BME280;33408;52.062;11.722;2023-05-25T06:25:40;102129.22;;;14.67;100.00
47670;BME280;33408;52.062;11.722;2023-05-25T06:28:08;102135.97;;;14.08;100.00
47670;BME280;33408;52.062;11.722;2023-05-25T06:30:34;102138.28;;;14.34;100.00
47670;BME280;33408;52.062;11.722;2023-05-25T06:33:01;102134.94;;;14.24;100.00
47670;BME280;33408;52.062;11.722;2023-05-25T06:35:28;102128.97;;;14.14;100.00
47670;BME280;33408;52.062;11.722;2023-05-25T06:37:54;102129.41;;;14.49;100.00
47670;BME280;33408;52.062;11.722;2023-05-25T06:40:21;102130.13;;;13.85;100.00
47670;BME280;33408;52.062;11.722;2023-05-25T06:42:48;102134.47;;;13.86;100.00
47670;BME280;33408;52.062;11.722;2023-05-25T06:45:16;102139.75;;;13.79;100.00
47670;BME280;33408;52.062;11.722;2023-05-25T06:47:42;102141.16;;;14.11;100.00
47670;BME280;33408;52.062;11.722;2023-05-25T06:50:09;102127.63;;;14.54;100.00
47670;BME280;33408;52.062;11.722;2023-05-25T06:52:36;102128.03;;;14.91;100.00
47670;BME280;33408;52.062;11.722;2023-05-25T06:55:03;102141.16;;;14.12;100.00
47670;BME280;33408;52.062;11.722;2023-05-25T06:57:30;102142.03;;;14.10;100.00
47670;BME280;33408;52.062;11.722;2023-05-25T06:59:56;102137.50;;;14.29;100.00
47670;BME280;33408;52.062;11.722;2023-05-25T07:02:24;102132.63;;;14.74;100.00
47670;BME280;33408;52.062;11.722;2023-05-25T07:04:51;102130.09;;;14.66;100.00
47670;BME280;33408;52.062;11.722;2023-05-25T07:07:18;102132.88;;;14.51;100.00
47670;BME280;33408;52.062;11.722;2023-05-25T07:09:44;102135.13;;;14.07;100.00
47670;BME280;33408;52.062;11.722;2023-05-25T07:12:11;102134.03;;;14.28;100.00
47670;BME280;33408;52.062;11.722;2023-05-25T07:14:38;102123.06;;;14.71;100.00
47670;BME280;33408;52.062;11.722;2023-05-25T07:17:05;102137.00;;;14.72;100.00
47670;BME280;33408;52.062;11.722;2023-05-25T07:19:33;102134.16;;;14.16;100.00
47670;BME280;33408;52.062;11.722;2023-05-25T07:22:00;102132.78;;;14.57;100.00
47670;BME280;33408;52.062;11.722;2023-05-25T07:24:26;102124.09;;;14.58;100.00
47670;BME280;33408;52.062;11.722;2023-05-25T07:26:53;102130.13;;;14.65;100.00
47670;BME280;33408;52.062;11.722;2023-05-25T07:29:19;102125.94;;;15.15;100.00
47670;BME280;33408;52.062;11.722;2023-05-25T07:31:46;102133.44;;;14.76;100.00
47670;BME280;33408;52.062;11.722;2023-05-25T07:34:13;102131.53;;;15.46;100.00
47670;BME280;33408;52.062;11.722;2023-05-25T07:36:41;102132.59;;;15.35;100.00
47670;BME280;33408;52.062;11.722;2023-05-25T07:39:07;102131.84;;;14.67;100.00
47670;BME280;33408;52.062;11.722;2023-05-25T07:41:35;102127.69;;;14.49;100.00
47670;BME280;33408;52.062;11.722;2023-05-25T07:44:02;102123.63;;;14.93;100.00
47670;BME280;33408;52.062;11.722;2023-05-25T07:46:28;102127.44;;;15.30;100.00
47670;BME280;33408;52.062;11.722;2023-05-25T07:48:55;102124.31;;;15.08;100.00
47670;BME280;33408;52.062;11.722;2023-05-25T07:51:23;102132.38;;;15.48;100.00
47670;BME280;33408;52.062;11.722;2023-05-25T07:53:52;102128.72;;;16.10;100.00
47670;BME280;33408;52.062;11.722;2023-05-25T07:56:20;102135.03;;;15.97;100.00
47670;BME280;33408;52.062;11.722;2023-05-25T07:58:47;102137.91;;;15.84;100.00
47670;BME280;33408;52.062;11.722;2023-05-25T08:01:14;102129.56;;;16.11;100.00
47670;BME280;33408;52.062;11.722;2023-05-25T08:03:41;102135.06;;;15.95;100.00
47670;BME280;33408;52.062;11.722;2023-05-25T08:06:08;102132.84;;;15.72;100.00
47670;BME280;33408;52.062;11.722;2023-05-25T08:08:34;102133.13;;;16.52;100.00
47670;BME280;33408;52.062;11.722;2023-05-25T08:11:03;102131.47;;;16.46;100.00
47670;BME280;33408;52.062;11.722;2023-05-25T08:13:31;102130.00;;;15.88;100.00
47670;BME280;33408;52.062;11.722;2023-05-25T08:15:58;102124.94;;;15.75;100.00
47670;BME280;33408;52.062;11.722;2023-05-25T08:18:24;102133.53;;;16.30;100.00
47670;BME280;33408;52.062;11.722;2023-05-25T08:20:51;102131.88;;;16.68;100.00
47670;BME280;33408;52.062;11.722;2023-05-25T08:23:17;102128.78;;;16.49;100.00
47670;BME280;33408;52.062;11.722;2023-05-25T08:25:44;102138.09;;;16.20;100.00
47670;BME280;33408;52.062;11.722;2023-05-25T08:28:12;102132.13;;;16.14;100.00
47670;BME280;33408;52.062;11.722;2023-05-25T08:30:38;102129.72;;;16.47;100.00
47670;BME280;33408;52.062;11.722;2023-05-25T08:33:05;102142.00;;;16.43;100.00
47670;BME280;33408;52.062;11.722;2023-05-25T08:35:32;102138.50;;;16.00;100.00
47670;BME280;33408;52.062;11.722;2023-05-25T08:37:58;102141.72;;;16.13;100.00
47670;BME280;33408;52.062;11.722;2023-05-25T08:40:26;102134.88;;;16.92;100.00
47670;BME280;33408;52.062;11.722;2023-05-25T08:42:54;102131.34;;;16.52;100.00
47670;BME280;33408;52.062;11.722;2023-05-25T08:45:22;102124.63;;;16.40;100.00
47670;BME280;33408;52.062;11.722;2023-05-25T08:47:51;102133.91;;;16.12;100.00
47670;BME280;33408;52.062;11.722;2023-05-25T08:50:19;102128.78;;;16.91;100.00
47670;BME280;33408;52.062;11.722;2023-05-25T08:52:47;102125.50;;;16.39;100.00
47670;BME280;33408;52.062;11.722;2023-05-25T08:55:16;102136.75;;;16.45;100.00
47670;BME280;33408;52.062;11.722;2023-05-25T08:57:47;102136.22;;;16.69;100.00
47670;BME280;33408;52.062;11.722;2023-05-25T09:00:20;102132.28;;;16.48;100.00
47670;BME280;33408;52.062;11.722;2023-05-25T09:02:55;102137.94;;;17.11;100.00
47670;BME280;33408;52.062;11.722;2023-05-25T09:05:23;102138.16;;;17.39;100.00
47670;BME280;33408;52.062;11.722;2023-05-25T09:07:50;102134.47;;;16.70;100.00
47670;BME280;33408;52.062;11.722;2023-05-25T09:10:19;102140.38;;;16.37;100.00
47670;BME280;33408;52.062;11.722;2023-05-25T09:12:46;102136.75;;;17.26;100.00
47670;BME280;33408;52.062;11.722;2023-05-25T09:15:14;102141.78;;;18.02;100.00
47670;BME280;33408;52.062;11.722;2023-05-25T09:17:40;102142.41;;;17.07;99.63
47670;BME280;33408;52.062;11.722;2023-05-25T09:20:10;102149.88;;;16.84;100.00
47670;BME280;33408;52.062;11.722;2023-05-25T09:22:37;102141.84;;;16.07;100.00
47670;BME280;33408;52.062;11.722;2023-05-25T09:25:06;102149.88;;;16.41;100.00
47670;BME280;33408;52.062;11.722;2023-05-25T09:27:34;102145.16;;;17.01;100.00
47670;BME280;33408;52.062;11.722;2023-05-25T09:30:03;102151.53;;;16.89;100.00
47670;BME280;33408;52.062;11.722;2023-05-25T09:32:30;102145.69;;;17.16;100.00
47670;BME280;33408;52.062;11.722;2023-05-25T09:35:05;102153.06;;;17.37;99.37
47670;BME280;33408;52.062;11.722;2023-05-25T09:37:34;102138.91;;;17.07;100.00
47670;BME280;33408;52.062;11.722;2023-05-25T09:40:02;102146.25;;;17.28;100.00
47670;BME280;33408;52.062;11.722;2023-05-25T09:42:29;102145.75;;;16.72;100.00
47670;BME280;33408;52.062;11.722;2023-05-25T09:44:57;102155.91;;;16.45;100.00
47670;BME280;33408;52.062;11.722;2023-05-25T09:47:23;102142.44;;;16.65;100.00
47670;BME280;33408;52.062;11.722;2023-05-25T09:49:51;102144.97;;;17.45;100.00
47670;BME280;33408;52.062;11.722;2023-05-25T09:52:18;102146.19;;;17.31;100.00
47670;BME280;33408;52.062;11.722;2023-05-25T09:54:48;102153.31;;;16.89;100.00
47670;BME280;33408;52.062;11.722;2023-05-25T09:57:16;102158.03;;;16.28;100.00
47670;BME280;33408;52.062;11.722;2023-05-25T09:59:43;102164.53;;;16.52;100.00
47670;BME280;33408;52.062;11.722;2023-05-25T10:02:10;102163.38;;;17.06;100.00
47670;BME280;33408;52.062;11.722;2023-05-25T10:04:37;102163.69;;;17.31;100.00
47670;BME280;33408;52.062;11.722;2023-05-25T10:07:04;102163.97;;;17.91;98.49
47670;BME280;33408;52.062;11.722;2023-05-25T10:09:34;102167.19;;;17.66;94.35
47670;BME280;33408;52.062;11.722;2023-05-25T10:12:06;102154.19;;;17.63;93.23
47670;BME280;33408;52.062;11.722;2023-05-25T10:14:35;102162.59;;;18.10;92.43
47670;BME280;33408;52.062;11.722;2023-05-25T10:17:04;102160.91;;;17.73;89.32
47670;BME280;33408;52.062;11.722;2023-05-25T10:19:35;102166.44;;;17.61;93.05
47670;BME280;33408;52.062;11.722;2023-05-25T10:22:09;102156.19;;;18.52;89.20
47670;BME280;33408;52.062;11.722;2023-05-25T10:24:42;102148.47;;;18.46;85.77
47670;BME280;33408;52.062;11.722;2023-05-25T10:27:16;102163.38;;;18.45;86.44
47670;BME280;33408;52.062;11.722;2023-05-25T10:29:44;102157.88;;;17.54;86.63
47670;BME280;33408;52.062;11.722;2023-05-25T10:32:13;102154.31;;;17.21;89.14
47670;BME280;33408;52.062;11.722;2023-05-25T10:34:40;102158.69;;;17.20;91.66
47670;BME280;33408;52.062;11.722;2023-05-25T10:37:07;102153.69;;;17.47;93.15
47670;BME280;33408;52.062;11.722;2023-05-25T10:39:34;102147.38;;;19.11;89.02
47670;BME280;33408;52.062;11.722;2023-05-25T10:42:02;102157.63;;;17.99;85.98
47670;BME280;33408;52.062;11.722;2023-05-25T10:44:30;102151.22;;;17.75;86.63
47670;BME280;33408;52.062;11.722;2023-05-25T10:46:58;102146.81;;;17.41;88.49
47670;BME280;33408;52.062;11.722;2023-05-25T10:49:29;102161.06;;;17.31;90.83
47670;BME280;33408;52.062;11.722;2023-05-25T10:51:57;102154.66;;;17.77;85.61
47670;BME280;33408;52.062;11.722;2023-05-25T10:54:28;102147.47;;;18.80;82.07
47670;BME280;33408;52.062;11.722;2023-05-25T10:57:07;102149.19;;;19.37;74.50
47670;BME280;33408;52.062;11.722;2023-05-25T10:59:39;102151.19;;;19.02;71.56
47670;BME280;33408;52.062;11.722;2023-05-25T11:02:06;102145.44;;;18.89;69.06
47670;BME280;33408;52.062;11.722;2023-05-25T11:04:33;102141.88;;;19.99;68.03
47670;BME280;33408;52.062;11.722;2023-05-25T11:07:06;102138.81;;;19.86;69.65
47670;BME280;33408;52.062;11.722;2023-05-25T11:09:40;102140.41;;;20.15;70.72
47670;BME280;33408;52.062;11.722;2023-05-25T11:12:17;102136.50;;;20.02;65.18
47670;BME280;33408;52.062;11.722;2023-05-25T11:15:10;102132.25;;;19.19;67.67
47670;BME280;33408;52.062;11.722;2023-05-25T11:17:59;102145.53;;;18.25;71.76
47670;BME280;33408;52.062;11.722;2023-05-25T11:20:27;102139.69;;;18.15;73.29
47670;BME280;33408;52.062;11.722;2023-05-25T11:22:56;102143.25;;;18.13;77.60
47670;BME280;33408;52.062;11.722;2023-05-25T11:25:37;102130.44;;;19.21;75.14
47670;BME280;33408;52.062;11.722;2023-05-25T11:28:04;102136.19;;;19.33;74.79
47670;BME280;33408;52.062;11.722;2023-05-25T11:30:33;102137.97;;;18.14;76.93
47670;BME280;33408;52.062;11.722;2023-05-25T11:33:01;102139.78;;;18.12;77.53
47670;BME280;33408;52.062;11.722;2023-05-25T11:35:29;102140.09;;;18.00;78.96
47670;BME280;33408;52.062;11.722;2023-05-25T11:37:58;102132.16;;;18.03;82.68
47670;BME280;33408;52.062;11.722;2023-05-25T11:40:28;102139.50;;;17.90;83.82
47670;BME280;33408;52.062;11.722;2023-05-25T11:42:55;102150.78;;;17.94;83.75
47670;BME280;33408;52.062;11.722;2023-05-25T11:45:27;102137.22;;;17.76;83.44
47670;BME280;33408;52.062;11.722;2023-05-25T11:47:56;102140.22;;;18.28;83.96
47670;BME280;33408;52.062;11.722;2023-05-25T11:50:23;102128.38;;;19.03;80.73
47670;BME280;33408;52.062;11.722;2023-05-25T11:52:49;102138.34;;;18.32;82.00
47670;BME280;33408;52.062;11.722;2023-05-25T11:55:16;102138.97;;;17.76;82.77
47670;BME280;33408;52.062;11.722;2023-05-25T11:57:43;102146.28;;;17.99;81.96
47670;BME280;33408;52.062;11.722;2023-05-25T12:00:10;102137.28;;;17.73;82.68
47670;BME280;33408;52.062;11.722;2023-05-25T12:02:38;102133.28;;;17.94;83.99
47670;BME280;33408;52.062;11.722;2023-05-25T12:05:07;102133.19;;;17.97;80.53
47670;BME280;33408;52.062;11.722;2023-05-25T12:07:34;102127.13;;;18.27;78.49
47670;BME280;33408;52.062;11.722;2023-05-25T12:10:04;102130.84;;;17.52;81.16
47670;BME280;33408;52.062;11.722;2023-05-25T12:12:38;102134.50;;;17.45;85.36
47670;BME280;33408;52.062;11.722;2023-05-25T12:15:06;102119.34;;;17.22;86.73
47670;BME280;33408;52.062;11.722;2023-05-25T12:17:33;102133.09;;;17.31;85.67
47670;BME280;33408;52.062;11.722;2023-05-25T12:20:00;102138.63;;;18.22;83.57
47670;BME280;33408;52.062;11.722;2023-05-25T12:22:29;102147.41;;;17.89;80.30
47670;BME280;33408;52.062;11.722;2023-05-25T12:24:56;102132.94;;;18.68;76.24
47670;BME280;33408;52.062;11.722;2023-05-25T12:27:22;102127.56;;;18.72;77.43
47670;BME280;33408;52.062;11.722;2023-05-25T12:29:49;102138.09;;;18.41;77.55
47670;BME280;33408;52.062;11.722;2023-05-25T12:32:17;102128.75;;;18.61;75.67
47670;BME280;33408;52.062;11.722;2023-05-25T12:34:44;102116.94;;;19.05;75.61
47670;BME280;33408;52.062;11.722;2023-05-25T12:37:17;102119.97;;;18.32;79.32
47670;BME280;33408;52.062;11.722;2023-05-25T12:39:47;102119.41;;;19.10;76.51